createdAt,value
2018-07-23T00:02:28.904Z,23.77
2018-07-23T00:05:02.349Z,23.68
2018-07-23T00:07:33.433Z,23.71
2018-07-23T00:10:04.548Z,24.13
2018-07-23T00:15:15.120Z,24.06
2018-07-23T00:17:47.084Z,23.90
2018-07-23T00:20:19.708Z,23.48
2018-07-23T00:22:51.539Z,23.73
2018-07-23T00:25:21.663Z,23.66
2018-07-23T00:27:53.955Z,23.70
2018-07-23T00:30:25.790Z,23.95
2018-07-23T00:32:56.678Z,23.82
2018-07-23T00:35:26.285Z,24.25
2018-07-23T00:37:55.731Z,23.98
2018-07-23T00:40:25.792Z,23.84
2018-07-23T00:45:30.482Z,23.54
2018-07-23T00:48:00.348Z,23.68
2018-07-23T00:53:05.570Z,23.58
2018-07-23T00:55:35.476Z,23.56
2018-07-23T01:00:43.228Z,23.57
2018-07-23T01:03:13.114Z,23.36
2018-07-23T01:05:43.033Z,23.50
2018-07-23T01:08:13.132Z,23.44
2018-07-23T01:10:43.969Z,23.59
2018-07-23T01:13:13.686Z,23.71
2018-07-23T01:15:43.708Z,23.79
2018-07-23T01:18:13.695Z,23.91
2018-07-23T01:20:44.336Z,23.81
2018-07-23T01:23:14.257Z,23.87
2018-07-23T01:25:44.777Z,23.79
2018-07-23T01:28:14.541Z,23.55
2018-07-23T01:30:44.290Z,23.90
2018-07-23T01:33:15.865Z,23.87
2018-07-23T01:35:45.259Z,23.83
2018-07-23T01:38:15.451Z,23.38
2018-07-23T01:40:45.589Z,23.53
2018-07-23T01:45:53.958Z,23.64
2018-07-23T01:48:23.622Z,23.29
2018-07-23T01:50:53.785Z,23.26
2018-07-23T01:53:23.714Z,23.20
2018-07-23T01:55:55.180Z,23.51
2018-07-23T01:58:39.704Z,23.32
2018-07-23T02:01:12.422Z,23.14
2018-07-23T02:03:42.663Z,22.96
2018-07-23T02:06:12.509Z,22.75
2018-07-23T02:08:42.341Z,22.57
2018-07-23T02:11:12.401Z,22.74
2018-07-23T02:13:42.348Z,22.95
2018-07-23T02:16:12.081Z,22.69
2018-07-23T02:18:41.857Z,22.13
2018-07-23T02:21:13.898Z,22.66
2018-07-23T02:23:44.759Z,22.87
2018-07-23T02:26:15.018Z,22.91
2018-07-23T02:28:45.347Z,22.67
2018-07-23T02:31:15.156Z,22.04
2018-07-23T02:33:45.173Z,21.98
2018-07-23T02:36:15.197Z,22.48
2018-07-23T02:38:45.176Z,22.65
2018-07-23T02:41:16.272Z,22.46
2018-07-23T02:43:46.113Z,22.27
2018-07-23T02:46:16.055Z,22.10
2018-07-23T02:48:45.790Z,22.23
2018-07-23T02:51:16.115Z,22.23
2018-07-23T02:53:45.843Z,22.67
2018-07-23T02:56:17.146Z,22.67
2018-07-23T02:58:46.951Z,22.71
2018-07-23T03:01:18.614Z,23.04
2018-07-23T03:03:48.604Z,23.10
2018-07-23T03:06:18.182Z,23.28
2018-07-23T03:08:47.888Z,23.07
2018-07-23T03:11:18.019Z,23.05
2018-07-23T03:13:48.083Z,22.90
2018-07-23T03:16:18.577Z,23.00
2018-07-23T03:18:48.373Z,23.10
2018-07-23T03:21:21.172Z,22.96
2018-07-23T03:23:56.197Z,22.66
2018-07-23T03:29:16.014Z,22.40
2018-07-23T03:31:51.414Z,22.43
2018-07-23T03:34:27.448Z,22.84
2018-07-23T03:37:04.216Z,22.78
2018-07-23T03:39:48.014Z,22.56
2018-07-23T03:42:24.098Z,22.80
2018-07-23T03:45:07.118Z,22.96
2018-07-23T03:47:44.672Z,22.91
2018-07-23T03:50:19.249Z,22.75
2018-07-23T03:52:58.026Z,22.65
2018-07-23T03:55:37.819Z,22.39
2018-07-23T04:00:59.081Z,22.58
2018-07-23T04:03:41.359Z,22.41
2018-07-23T04:06:16.146Z,22.38
2018-07-23T04:08:57.843Z,22.40
2018-07-23T04:11:36.780Z,21.96
2018-07-23T04:14:34.815Z,21.66
2018-07-23T04:17:14.390Z,21.55
2018-07-23T04:19:55.688Z,21.74
2018-07-23T04:22:31.201Z,22.04
2018-07-23T04:25:07.507Z,22.59
2018-07-23T04:27:43.639Z,22.66
2018-07-23T04:33:08.638Z,22.57
2018-07-23T04:35:45.075Z,22.51
2018-07-23T04:41:05.775Z,22.55
2018-07-23T04:43:44.511Z,22.17
2018-07-23T04:46:19.896Z,22.27
2018-07-23T04:48:57.274Z,22.13
2018-07-23T04:51:34.365Z,22.29
2018-07-23T04:54:11.147Z,22.37
2018-07-23T04:59:35.857Z,22.90
2018-07-23T05:07:41.478Z,22.34
2018-07-23T05:10:18.273Z,22.64
2018-07-23T05:12:58.192Z,22.36
2018-07-23T05:15:38.952Z,22.51
2018-07-23T05:18:17.637Z,22.48
2018-07-23T05:20:54.576Z,22.57
2018-07-23T05:23:34.390Z,22.54
2018-07-23T05:26:12.123Z,22.66
2018-07-23T05:28:50.974Z,22.60
2018-07-23T05:31:29.021Z,22.67
2018-07-23T05:36:50.286Z,22.95
2018-07-23T05:39:31.871Z,22.96
2018-07-23T05:42:08.609Z,23.00
2018-07-23T05:44:48.907Z,22.96
2018-07-23T05:47:28.548Z,22.95
2018-07-23T05:50:06.655Z,22.72
2018-07-23T05:52:44.920Z,22.72
2018-07-23T05:55:23.467Z,23.00
2018-07-23T05:58:06.673Z,23.25
2018-07-23T06:03:27.440Z,23.17
2018-07-23T06:06:04.410Z,23.15
2018-07-23T06:08:43.679Z,23.15
2018-07-23T06:11:16.416Z,23.01
2018-07-23T06:13:55.732Z,23.12
2018-07-23T06:16:33.421Z,23.24
2018-07-23T06:19:09.536Z,23.25
2018-07-23T06:21:50.336Z,23.21
2018-07-23T06:24:28.399Z,23.18
2018-07-23T06:27:08.256Z,23.27
2018-07-23T06:29:50.018Z,23.39
2018-07-23T06:32:29.281Z,23.71
2018-07-23T06:35:09.119Z,23.56
2018-07-23T06:37:45.157Z,23.63
2018-07-23T06:40:26.860Z,23.67
2018-07-23T06:43:02.244Z,23.80
2018-07-23T06:45:39.517Z,23.98
2018-07-23T06:48:21.197Z,23.84
2018-07-23T06:53:37.742Z,23.64
2018-07-23T06:56:15.862Z,24.08
2018-07-23T06:58:55.989Z,24.18
2018-07-23T07:01:32.258Z,24.08
2018-07-23T07:04:09.644Z,24.00
2018-07-23T07:06:46.074Z,23.86
2018-07-23T07:09:30.060Z,24.12
2018-07-23T07:12:06.897Z,24.17
2018-07-23T07:14:43.479Z,24.23
2018-07-23T07:17:23.360Z,24.17
2018-07-23T07:19:58.841Z,24.03
2018-07-23T07:22:36.205Z,24.13
2018-07-23T07:25:12.157Z,23.93
2018-07-23T07:27:52.647Z,23.81
2018-07-23T07:30:35.028Z,23.78
2018-07-23T07:33:15.618Z,23.82
2018-07-23T07:35:55.261Z,23.93
2018-07-23T07:38:34.281Z,24.05
2018-07-23T07:43:55.294Z,24.38
2018-07-23T07:46:36.868Z,24.26
2018-07-23T07:49:13.154Z,24.58
2018-07-23T07:51:52.984Z,24.31
2018-07-23T07:54:31.104Z,24.53
2018-07-23T07:57:15.861Z,24.39
2018-07-23T07:59:56.526Z,24.66
2018-07-23T08:02:36.186Z,24.61
2018-07-23T08:05:15.658Z,24.60
2018-07-23T08:07:52.910Z,24.74
2018-07-23T08:10:28.269Z,24.83
2018-07-23T08:13:05.659Z,24.66
2018-07-23T08:15:42.629Z,24.81
2018-07-23T08:18:18.381Z,24.90
2018-07-23T08:20:55.175Z,25.05
2018-07-23T08:23:36.919Z,25.51
2018-07-23T08:26:17.074Z,25.41
2018-07-23T08:28:51.990Z,25.30
2018-07-23T08:31:40.154Z,24.87
2018-07-23T08:34:20.026Z,24.60
2018-07-23T08:36:56.838Z,24.70
2018-07-23T08:39:33.804Z,24.57
2018-07-23T08:42:13.879Z,24.93
2018-07-23T08:44:53.325Z,25.03
2018-07-23T08:47:32.558Z,24.43
2018-07-23T08:52:56.749Z,24.49
2018-07-23T08:55:33.168Z,24.71
2018-07-23T08:58:11.380Z,25.16
2018-07-23T09:00:48.429Z,24.86
2018-07-23T09:03:31.395Z,24.87
2018-07-23T09:06:14.312Z,25.33
2018-07-23T09:08:55.397Z,25.29
2018-07-23T09:11:41.332Z,25.29
2018-07-23T09:14:21.015Z,25.20
2018-07-23T09:17:04.788Z,25.13
2018-07-23T09:19:42.678Z,24.86
2018-07-23T09:22:31.647Z,24.81
2018-07-23T09:25:08.365Z,24.82
2018-07-23T09:27:49.076Z,24.99
2018-07-23T09:30:34.574Z,24.94
2018-07-23T09:33:22.031Z,24.95
2018-07-23T09:36:04.606Z,24.72
2018-07-23T09:38:44.691Z,24.50
2018-07-23T09:41:24.358Z,24.56
2018-07-23T09:44:07.651Z,24.44
2018-07-23T09:46:52.279Z,24.45
2018-07-23T09:49:35.867Z,24.16
2018-07-23T09:52:27.613Z,24.29
2018-07-23T09:55:03.799Z,24.49
2018-07-23T09:57:44.240Z,24.15
2018-07-23T10:00:25.675Z,23.86
2018-07-23T10:05:57.354Z,23.86
2018-07-23T10:14:12.926Z,24.09
2018-07-23T10:16:52.303Z,24.27
2018-07-23T10:19:38.606Z,23.99
2018-07-23T10:22:25.777Z,23.81
2018-07-23T10:25:04.647Z,24.19
2018-07-23T10:27:45.417Z,24.52
2018-07-23T10:30:25.976Z,24.22
2018-07-23T10:33:08.404Z,24.47
2018-07-23T10:35:45.888Z,24.46
2018-07-23T10:38:31.854Z,24.83
2018-07-23T10:41:18.479Z,24.70
2018-07-23T10:44:01.946Z,24.71
2018-07-23T10:46:41.414Z,25.04
2018-07-23T10:49:23.065Z,24.96
2018-07-23T10:52:03.865Z,25.01
2018-07-23T10:54:43.777Z,25.02
2018-07-23T10:57:26.773Z,25.28
2018-07-23T11:00:03.873Z,25.30
2018-07-23T11:02:46.190Z,24.66
2018-07-23T11:05:31.783Z,24.41
2018-07-23T11:08:16.803Z,24.54
2018-07-23T11:10:54.558Z,24.89
2018-07-23T11:13:36.142Z,25.00
2018-07-23T11:16:14.336Z,25.47
2018-07-23T11:18:50.793Z,25.50
2018-07-23T11:21:37.098Z,25.48
2018-07-23T11:24:19.862Z,25.55
2018-07-23T11:27:00.617Z,25.71
2018-07-23T11:29:39.253Z,25.88
2018-07-23T11:32:20.061Z,25.76
2018-07-23T11:35:07.315Z,25.64
2018-07-23T11:37:48.471Z,25.86
2018-07-23T11:40:21.967Z,25.73
2018-07-23T11:43:03.856Z,25.80
2018-07-23T11:45:44.337Z,25.97
2018-07-23T11:48:32.095Z,25.88
2018-07-23T11:53:56.601Z,25.52
2018-07-23T11:56:36.230Z,25.72
2018-07-23T11:59:16.119Z,25.71
2018-07-23T12:02:02.443Z,25.70
2018-07-23T12:04:40.884Z,26.11
2018-07-23T12:07:27.019Z,26.07
2018-07-23T12:10:08.342Z,26.09
2018-07-23T12:12:43.142Z,26.13
2018-07-23T12:15:18.995Z,25.92
2018-07-23T12:17:59.571Z,26.18
2018-07-23T12:20:45.127Z,26.41
2018-07-23T12:23:29.881Z,26.23
2018-07-23T12:26:15.821Z,26.39
2018-07-23T12:28:59.724Z,26.37
2018-07-23T12:34:25.850Z,25.97
2018-07-23T12:37:03.954Z,25.82
2018-07-23T12:39:41.308Z,25.55
2018-07-23T12:42:26.731Z,25.37
2018-07-23T12:45:07.805Z,25.24
2018-07-23T12:47:45.846Z,25.21
2018-07-23T12:53:10.595Z,25.05
2018-07-23T12:55:57.221Z,24.89
2018-07-23T12:58:36.077Z,24.93
2018-07-23T13:01:09.833Z,24.92
2018-07-23T13:03:51.855Z,25.00
2018-07-23T13:06:35.314Z,24.96
2018-07-23T13:09:17.942Z,25.09
2018-07-23T13:12:03.005Z,25.00
2018-07-23T13:14:42.766Z,24.94
2018-07-23T13:17:21.798Z,24.99
2018-07-23T13:19:58.611Z,24.75
2018-07-23T13:22:39.367Z,24.81
2018-07-23T13:25:21.336Z,24.68
2018-07-23T13:28:01.480Z,24.74
2018-07-23T13:30:39.074Z,24.70
2018-07-23T13:33:17.693Z,24.83
2018-07-23T13:35:54.792Z,25.00
2018-07-23T13:38:32.175Z,25.08
2018-07-23T13:41:13.461Z,25.17
2018-07-23T13:43:50.769Z,25.51
2018-07-23T13:46:30.902Z,25.86
2018-07-23T13:49:15.428Z,25.87
2018-07-23T13:51:57.168Z,26.16
2018-07-23T13:54:41.679Z,26.34
2018-07-23T13:57:22.994Z,26.78
2018-07-23T14:00:06.205Z,27.39
2018-07-23T14:02:42.180Z,27.57
2018-07-23T14:08:12.179Z,27.52
2018-07-23T14:10:51.238Z,27.92
2018-07-23T14:13:32.125Z,28.34
2018-07-23T14:16:14.566Z,28.35
2018-07-23T14:18:51.484Z,28.40
2018-07-23T14:21:32.959Z,28.16
2018-07-23T14:24:16.019Z,28.10
2018-07-23T14:26:53.303Z,28.26
2018-07-23T14:29:31.702Z,28.18
2018-07-23T14:32:12.414Z,28.51
2018-07-23T14:34:50.201Z,28.63
2018-07-23T14:37:37.577Z,29.12
2018-07-23T14:40:15.651Z,29.54
2018-07-23T14:42:55.335Z,29.53
2018-07-23T14:45:29.717Z,29.72
2018-07-23T14:48:05.339Z,29.89
2018-07-23T14:50:44.364Z,29.71
2018-07-23T14:56:01.992Z,29.74
2018-07-23T15:01:19.248Z,29.93
2018-07-23T15:03:59.409Z,30.21
2018-07-23T15:06:48.727Z,30.03
2018-07-23T15:09:25.728Z,30.17
2018-07-23T15:12:10.199Z,30.26
2018-07-23T15:14:48.571Z,30.68
2018-07-23T15:20:22.203Z,30.69
2018-07-23T15:23:01.381Z,31.30
2018-07-23T15:28:23.832Z,31.56
2018-07-23T15:31:05.135Z,31.40
2018-07-23T15:33:48.607Z,31.43
2018-07-23T15:36:35.697Z,31.40
2018-07-23T15:39:18.829Z,31.55
2018-07-23T15:42:00.613Z,31.49
2018-07-23T15:44:40.411Z,31.87
2018-07-23T15:47:26.949Z,31.94
2018-07-23T15:50:05.678Z,32.13
2018-07-23T15:52:43.463Z,32.35
2018-07-23T15:55:29.016Z,32.23
2018-07-23T15:58:06.704Z,32.35
2018-07-23T16:00:44.860Z,32.41
2018-07-23T16:03:25.702Z,32.51
2018-07-23T16:06:08.728Z,32.48
2018-07-23T16:08:47.801Z,32.28
2018-07-23T16:11:29.718Z,32.48
2018-07-23T16:14:08.854Z,32.05
2018-07-23T16:16:51.423Z,32.14
2018-07-23T16:19:32.747Z,32.12
2018-07-23T16:22:24.394Z,32.24
2018-07-23T16:25:03.611Z,32.09
2018-07-23T16:27:43.794Z,31.57
2018-07-23T16:30:19.323Z,31.72
2018-07-23T16:32:58.839Z,31.80
2018-07-23T16:35:35.831Z,32.06
2018-07-23T16:38:19.021Z,32.24
2018-07-23T16:41:03.120Z,32.10
2018-07-23T16:43:48.077Z,31.99
2018-07-23T16:46:26.966Z,31.83
2018-07-23T16:49:16.686Z,31.92
2018-07-23T16:51:58.939Z,32.04
2018-07-23T16:54:38.512Z,31.98
2018-07-23T16:57:21.835Z,31.76
2018-07-23T17:00:00.793Z,31.60
2018-07-23T17:02:42.115Z,31.83
2018-07-23T17:05:22.629Z,31.92
2018-07-23T17:08:06.146Z,32.04
2018-07-23T17:10:43.135Z,32.16
2018-07-23T17:13:23.694Z,32.59
2018-07-23T17:16:00.370Z,32.98
2018-07-23T17:18:41.475Z,32.97
2018-07-23T17:21:23.540Z,33.02
2018-07-23T17:24:01.601Z,32.05
2018-07-23T17:26:39.341Z,31.10
2018-07-23T17:29:21.443Z,30.76
2018-07-23T17:32:05.448Z,30.52
2018-07-23T17:34:47.052Z,30.02
2018-07-23T17:37:28.479Z,29.24
2018-07-23T17:40:09.741Z,29.23
2018-07-23T17:42:53.597Z,29.28
2018-07-23T17:45:35.159Z,28.89
2018-07-23T17:48:15.058Z,28.70
2018-07-23T17:50:55.688Z,28.60
2018-07-23T17:53:35.287Z,28.48
2018-07-23T17:56:16.131Z,28.31
2018-07-23T17:58:59.922Z,28.08
2018-07-23T18:01:44.318Z,27.85
2018-07-23T18:04:25.140Z,27.80
2018-07-23T18:07:10.778Z,27.53
2018-07-23T18:09:48.386Z,27.59
2018-07-23T18:12:35.084Z,27.38
2018-07-23T18:15:19.638Z,27.22
2018-07-23T18:17:59.762Z,27.49
2018-07-23T18:20:44.860Z,27.45
2018-07-23T18:23:29.443Z,27.11
2018-07-23T18:26:08.855Z,27.53
2018-07-23T18:28:52.639Z,27.13
2018-07-23T18:34:16.179Z,26.56
2018-07-23T18:36:57.505Z,26.42
2018-07-23T18:39:36.826Z,26.27
2018-07-23T18:42:22.784Z,26.23
2018-07-23T18:47:55.018Z,26.32
2018-07-23T18:50:39.718Z,25.99
2018-07-23T18:53:30.322Z,25.75
2018-07-23T18:56:10.781Z,25.62
2018-07-23T18:58:55.169Z,25.46
2018-07-23T19:01:43.536Z,25.34
2018-07-23T19:04:25.655Z,25.33
2018-07-23T19:07:06.810Z,25.33
2018-07-23T19:12:29.916Z,25.15
2018-07-23T19:15:13.532Z,25.01
2018-07-23T19:17:52.135Z,25.10
2018-07-23T19:20:31.795Z,25.36
2018-07-23T19:23:09.632Z,25.24
2018-07-23T19:25:56.511Z,25.15
2018-07-23T19:28:36.737Z,25.14
2018-07-23T19:31:11.589Z,24.89
2018-07-23T19:33:51.993Z,24.74
2018-07-23T19:36:28.313Z,24.52
2018-07-23T19:41:50.034Z,23.86
2018-07-23T19:44:29.862Z,23.80
2018-07-23T19:47:08.281Z,23.66
2018-07-23T19:49:55.609Z,23.75
2018-07-23T19:52:37.380Z,23.78
2018-07-23T19:55:16.858Z,23.93
2018-07-23T19:57:59.600Z,23.74
2018-07-23T20:00:46.588Z,24.06
2018-07-23T20:03:37.629Z,24.00
2018-07-23T20:06:27.553Z,23.81
2018-07-23T20:09:11.063Z,24.01
2018-07-23T20:11:54.034Z,23.95
2018-07-23T20:14:41.584Z,23.63
2018-07-23T20:20:14.419Z,23.65
2018-07-23T20:22:57.576Z,23.69
2018-07-23T20:25:38.454Z,23.05
2018-07-23T20:28:19.885Z,23.05
2018-07-23T20:31:04.663Z,23.25
2018-07-23T20:36:30.714Z,23.04
2018-07-23T20:39:13.341Z,22.96
2018-07-23T20:41:59.215Z,23.32
2018-07-23T20:44:38.412Z,23.11
2018-07-23T20:47:27.067Z,23.04
2018-07-23T20:50:12.037Z,23.05
2018-07-23T20:53:05.536Z,22.94
2018-07-23T20:55:57.987Z,22.96
2018-07-23T20:58:40.694Z,22.87
2018-07-23T21:01:24.717Z,22.96
2018-07-23T21:04:14.472Z,23.14
2018-07-23T21:06:56.193Z,22.89
2018-07-23T21:09:43.760Z,22.97
2018-07-23T21:12:25.985Z,23.00
2018-07-23T21:15:08.498Z,22.96
2018-07-23T21:17:58.696Z,23.04
2018-07-23T21:20:49.058Z,22.96
2018-07-23T21:23:36.612Z,23.35
2018-07-23T21:26:24.254Z,23.52
2018-07-23T21:29:08.949Z,23.52
2018-07-23T21:31:54.402Z,23.06
2018-07-23T21:34:39.810Z,23.18
2018-07-23T21:37:28.977Z,23.07
2018-07-23T21:40:06.387Z,23.03
2018-07-23T21:42:56.632Z,22.78
2018-07-23T21:48:36.408Z,22.50
2018-07-23T21:51:25.825Z,22.65
2018-07-23T21:54:20.392Z,22.20
2018-07-23T21:57:13.556Z,21.98
2018-07-23T21:59:53.866Z,22.24
2018-07-23T22:02:47.698Z,22.21
2018-07-23T22:05:40.044Z,21.80
2018-07-23T22:08:24.789Z,22.22
2018-07-23T22:11:12.058Z,22.34
2018-07-23T22:13:59.260Z,21.80
2018-07-23T22:16:49.893Z,22.03
2018-07-23T22:19:37.200Z,22.06
2018-07-23T22:22:23.669Z,22.08
2018-07-23T22:25:06.872Z,22.37
2018-07-23T22:27:53.964Z,22.53
2018-07-23T22:30:36.918Z,22.84
2018-07-23T22:33:24.852Z,22.57
2018-07-23T22:36:11.066Z,22.59
2018-07-23T22:39:03.062Z,22.89
2018-07-23T22:41:53.389Z,22.58
2018-07-23T22:44:41.484Z,22.71
2018-07-23T22:47:38.527Z,22.57
2018-07-23T22:50:24.062Z,22.43
2018-07-23T22:53:15.559Z,22.38
2018-07-23T22:56:01.851Z,22.53
2018-07-23T22:58:50.232Z,22.59
2018-07-23T23:01:39.104Z,22.58
2018-07-23T23:04:25.684Z,22.49
2018-07-23T23:07:13.884Z,22.36
2018-07-23T23:10:03.448Z,22.20
2018-07-23T23:12:54.652Z,22.43
2018-07-23T23:15:41.928Z,22.52
2018-07-23T23:18:35.208Z,22.57
2018-07-23T23:21:24.380Z,22.36
2018-07-23T23:24:06.729Z,22.28
2018-07-23T23:26:56.059Z,22.16
2018-07-23T23:29:46.147Z,22.44
2018-07-23T23:32:39.467Z,22.40
2018-07-23T23:35:25.298Z,22.37
2018-07-23T23:38:17.555Z,22.51
2018-07-23T23:41:01.456Z,22.57
2018-07-23T23:46:50.324Z,22.73
2018-07-23T23:49:35.527Z,22.62
2018-07-23T23:52:23.715Z,22.60
2018-07-23T23:55:07.444Z,22.82
2018-07-23T23:57:50.496Z,23.08
